Aérodrome :
LOGIN :

S'inscrire | Disclaimer

   EN    FR    IT 

 










Légende :    VFR   VFR Marginal   IFR   IFR Intensif   IFR Très Intensif
Visi : 
Plafond : 
>= 8 km
>= 3000ft
5 à 8 km
1000 à 3000 ft
1500m à 5 km
500 à 1000 ft
800 à 1500m
200 à 500 ft
< 800m
< 200 ft
Symboles :   Orages  Brouillard  Fortes neiges  Fortes précipitations  Vent > 20 kt
SIGMETs :   Divers  Orages  Givrage  Turbulence  Onde Orograph.  Cendres Volcan.







- Altitude de l'aérodrome : 1521 ft
- Code IATA : NCY
- Voir les cartes d'approche


LFLP - Annecy

DERNIER METAR :
  • 150230Z AUTO 31003KT 6000 FEW017 OVC039 M00/M02 Q1020 TEMPO 0800 FZFG VV///

METARs EXPIRÉS :
  • 150200Z AUTO VRB02KT 6000 OVC018 M00/M02 Q1020
  • 150130Z AUTO VRB03KT 6000 FEW013 BKN021 OVC038 M00/M02 Q1020
  • 150100Z AUTO 28004KT 250V310 6000 FEW012 BKN024 BKN032 M00/M02 Q1020
  • 150030Z AUTO 25004KT 7000 OVC040 M00/M02 Q1020
  • 150000Z AUTO VRB03KT 6000 FEW025 OVC039 M00/M02 Q1020

TAF TAF LFLP
Valide du 15 à 03h jusqu'au 16 à 03h UTC


150200Z 1503/1603 30004KT 6000 OVC018
PROB30
TEMPO 1503/1508 0800 FZFG VV///
BECMG 1508/1510 CAVOK
BECMG 1520/1522 4000 -RA BKN014
Pas de NOTAMs connus pour ce terrain.



MET'MAP, la Météo Aéronautique d'un coup d'oeil ! - Copyright ORBIFLY Décembre 2007 - Disclaimer

ORBIFLY MET'MAP TEAM :

Programmation & Développement : Alexandra Zaïnal
Conception & Développement : Baudouin d'Aumeries
Co-Programmation & Développement : Marc-Olivier Méhu
Soutien technique & logistique : Manuel Goepfert

Contact : metmap@orbifly.com




SOURCES & CREDITS :

   NOAA